sensor_id;sensor_type;location;lat;lon;timestamp;temperature;humidity
8633;DHT22;4354;49.832;10.746;2023-03-16T00:01:07;-1.40;99.90
8633;DHT22;4354;49.832;10.746;2023-03-16T00:03:34;-1.40;99.90
8633;DHT22;4354;49.832;10.746;2023-03-16T00:06:02;-1.50;99.90
8633;DHT22;4354;49.832;10.746;2023-03-16T00:08:29;-1.50;99.90
8633;DHT22;4354;49.832;10.746;2023-03-16T00:10:56;-1.50;99.90
8633;DHT22;4354;49.832;10.746;2023-03-16T00:13:23;-1.60;99.90
8633;DHT22;4354;49.832;10.746;2023-03-16T00:15:55;-1.60;99.90
8633;DHT22;4354;49.832;10.746;2023-03-16T00:18:24;-1.60;99.90
8633;DHT22;4354;49.832;10.746;2023-03-16T00:20:56;-1.70;99.90
8633;DHT22;4354;49.832;10.746;2023-03-16T00:23:24;-1.80;99.90
8633;DHT22;4354;49.832;10.746;2023-03-16T00:25:55;-1.90;99.90
8633;DHT22;4354;49.832;10.746;2023-03-16T00:28:24;-1.90;99.90
8633;DHT22;4354;49.832;10.746;2023-03-16T00:30:51;-1.90;99.90
8633;DHT22;4354;49.832;10.746;2023-03-16T00:33:18;-1.90;99.90
8633;DHT22;4354;49.832;10.746;2023-03-16T00:35:46;-1.90;99.90
8633;DHT22;4354;49.832;10.746;2023-03-16T00:38:17;-1.90;99.90
8633;DHT22;4354;49.832;10.746;2023-03-16T00:40:45;-1.80;99.90
8633;DHT22;4354;49.832;10.746;2023-03-16T00:43:13;-1.70;99.90
8633;DHT22;4354;49.832;10.746;2023-03-16T00:45:44;-1.70;99.90
8633;DHT22;4354;49.832;10.746;2023-03-16T00:48:11;-1.60;99.90
8633;DHT22;4354;49.832;10.746;2023-03-16T00:50:38;-1.60;99.90
8633;DHT22;4354;49.832;10.746;2023-03-16T00:53:05;-1.60;99.90
8633;DHT22;4354;49.832;10.746;2023-03-16T00:55:32;-1.60;99.90
8633;DHT22;4354;49.832;10.746;2023-03-16T00:57:58;-1.60;99.90
8633;DHT22;4354;49.832;10.746;2023-03-16T01:00:25;-1.50;99.90
8633;DHT22;4354;49.832;10.746;2023-03-16T01:02:54;-1.50;99.90
8633;DHT22;4354;49.832;10.746;2023-03-16T01:05:21;-1.50;99.90
8633;DHT22;4354;49.832;10.746;2023-03-16T01:07:48;-1.50;99.90
8633;DHT22;4354;49.832;10.746;2023-03-16T01:10:14;-1.60;99.90
8633;DHT22;4354;49.832;10.746;2023-03-16T01:12:42;-1.60;99.90
8633;DHT22;4354;49.832;10.746;2023-03-16T01:15:11;-1.70;99.90
8633;DHT22;4354;49.832;10.746;2023-03-16T01:17:38;-1.80;99.90
8633;DHT22;4354;49.832;10.746;2023-03-16T01:20:04;-1.70;99.90
8633;DHT22;4354;49.832;10.746;2023-03-16T01:22:33;-1.70;99.90
8633;DHT22;4354;49.832;10.746;2023-03-16T01:25:00;-1.70;99.90
8633;DHT22;4354;49.832;10.746;2023-03-16T01:27:27;-1.70;99.90
8633;DHT22;4354;49.832;10.746;2023-03-16T01:29:54;-1.70;99.90
8633;DHT22;4354;49.832;10.746;2023-03-16T01:32:20;-1.70;99.90
8633;DHT22;4354;49.832;10.746;2023-03-16T01:34:47;-1.70;99.90
8633;DHT22;4354;49.832;10.746;2023-03-16T01:37:14;-1.60;99.90
8633;DHT22;4354;49.832;10.746;2023-03-16T01:39:40;-1.90;99.90
8633;DHT22;4354;49.832;10.746;2023-03-16T01:42:07;-1.90;99.90
8633;DHT22;4354;49.832;10.746;2023-03-16T01:44:53;-1.90;99.90
8633;DHT22;4354;49.832;10.746;2023-03-16T01:47:21;-2.00;99.90
8633;DHT22;4354;49.832;10.746;2023-03-16T01:49:52;-2.00;99.90
8633;DHT22;4354;49.832;10.746;2023-03-16T01:52:24;-1.90;99.90
8633;DHT22;4354;49.832;10.746;2023-03-16T01:54:57;-2.00;99.90
8633;DHT22;4354;49.832;10.746;2023-03-16T01:57:28;-2.10;99.90
8633;DHT22;4354;49.832;10.746;2023-03-16T02:00:08;-2.10;99.90
8633;DHT22;4354;49.832;10.746;2023-03-16T02:02:48;-2.20;99.90
8633;DHT22;4354;49.832;10.746;2023-03-16T02:05:20;-2.20;99.90
8633;DHT22;4354;49.832;10.746;2023-03-16T02:07:50;-2.20;99.90
8633;DHT22;4354;49.832;10.746;2023-03-16T02:10:19;-2.20;99.90
8633;DHT22;4354;49.832;10.746;2023-03-16T02:12:46;-2.20;99.90
8633;DHT22;4354;49.832;10.746;2023-03-16T02:15:13;-2.20;99.90
8633;DHT22;4354;49.832;10.746;2023-03-16T02:17:42;-2.20;99.90
8633;DHT22;4354;49.832;10.746;2023-03-16T02:20:42;-2.30;99.90
8633;DHT22;4354;49.832;10.746;2023-03-16T02:23:15;-2.20;99.90
8633;DHT22;4354;49.832;10.746;2023-03-16T02:26:21;-2.20;99.90
8633;DHT22;4354;49.832;10.746;2023-03-16T02:31:37;-2.00;99.90
8633;DHT22;4354;49.832;10.746;2023-03-16T02:34:04;-2.10;99.90
8633;DHT22;4354;49.832;10.746;2023-03-16T02:36:32;-2.10;99.90
8633;DHT22;4354;49.832;10.746;2023-03-16T02:38:59;-2.00;99.90
8633;DHT22;4354;49.832;10.746;2023-03-16T02:41:25;-2.00;99.90
8633;DHT22;4354;49.832;10.746;2023-03-16T02:43:57;-1.90;99.90
8633;DHT22;4354;49.832;10.746;2023-03-16T02:46:27;-2.00;99.90
8633;DHT22;4354;49.832;10.746;2023-03-16T02:48:57;-1.90;99.90
8633;DHT22;4354;49.832;10.746;2023-03-16T02:51:24;-2.00;99.90
8633;DHT22;4354;49.832;10.746;2023-03-16T02:53:51;-1.90;99.90
8633;DHT22;4354;49.832;10.746;2023-03-16T02:56:18;-2.10;99.90
8633;DHT22;4354;49.832;10.746;2023-03-16T02:58:45;-2.10;99.90
8633;DHT22;4354;49.832;10.746;2023-03-16T03:01:11;-2.10;99.90
8633;DHT22;4354;49.832;10.746;2023-03-16T03:03:38;-2.10;99.90
8633;DHT22;4354;49.832;10.746;2023-03-16T03:06:05;-2.30;99.90
8633;DHT22;4354;49.832;10.746;2023-03-16T03:08:32;-2.30;99.90
8633;DHT22;4354;49.832;10.746;2023-03-16T03:10:59;-2.30;99.90
8633;DHT22;4354;49.832;10.746;2023-03-16T03:13:26;-2.30;99.90
8633;DHT22;4354;49.832;10.746;2023-03-16T03:15:53;-2.30;99.90
8633;DHT22;4354;49.832;10.746;2023-03-16T03:18:19;-2.30;99.90
8633;DHT22;4354;49.832;10.746;2023-03-16T03:20:46;-2.40;99.90
8633;DHT22;4354;49.832;10.746;2023-03-16T03:23:13;-2.40;99.90
8633;DHT22;4354;49.832;10.746;2023-03-16T03:25:42;-2.40;99.90
8633;DHT22;4354;49.832;10.746;2023-03-16T03:28:09;-2.40;99.90
8633;DHT22;4354;49.832;10.746;2023-03-16T03:30:36;-2.40;99.90
8633;DHT22;4354;49.832;10.746;2023-03-16T03:33:03;-2.30;99.90
8633;DHT22;4354;49.832;10.746;2023-03-16T03:35:30;-2.40;99.90
8633;DHT22;4354;49.832;10.746;2023-03-16T03:37:57;-2.30;99.90
8633;DHT22;4354;49.832;10.746;2023-03-16T03:40:24;-2.30;99.90
8633;DHT22;4354;49.832;10.746;2023-03-16T03:42:51;-2.20;99.90
8633;DHT22;4354;49.832;10.746;2023-03-16T03:45:18;-2.20;99.90
8633;DHT22;4354;49.832;10.746;2023-03-16T03:47:45;-2.20;99.90
8633;DHT22;4354;49.832;10.746;2023-03-16T03:50:13;-2.20;99.90
8633;DHT22;4354;49.832;10.746;2023-03-16T03:52:40;-2.20;99.90
8633;DHT22;4354;49.832;10.746;2023-03-16T03:55:07;-2.10;99.90
8633;DHT22;4354;49.832;10.746;2023-03-16T03:57:34;-2.00;99.90
8633;DHT22;4354;49.832;10.746;2023-03-16T04:00:02;-2.10;99.90
8633;DHT22;4354;49.832;10.746;2023-03-16T04:02:33;-2.00;99.90
8633;DHT22;4354;49.832;10.746;2023-03-16T04:05:00;-2.00;99.90
8633;DHT22;4354;49.832;10.746;2023-03-16T04:07:27;-2.00;99.90
8633;DHT22;4354;49.832;10.746;2023-03-16T04:09:53;-2.10;99.90
8633;DHT22;4354;49.832;10.746;2023-03-16T04:12:21;-2.10;99.90
8633;DHT22;4354;49.832;10.746;2023-03-16T04:14:48;-2.00;99.90
8633;DHT22;4354;49.832;10.746;2023-03-16T04:17:14;-2.00;99.90
8633;DHT22;4354;49.832;10.746;2023-03-16T04:19:41;-2.00;99.90
8633;DHT22;4354;49.832;10.746;2023-03-16T04:22:08;-2.00;99.90
8633;DHT22;4354;49.832;10.746;2023-03-16T04:24:35;-2.00;99.90
8633;DHT22;4354;49.832;10.746;2023-03-16T04:27:01;-2.00;99.90
8633;DHT22;4354;49.832;10.746;2023-03-16T04:29:28;-1.90;99.90
8633;DHT22;4354;49.832;10.746;2023-03-16T04:31:55;-1.90;99.90
8633;DHT22;4354;49.832;10.746;2023-03-16T04:34:22;-1.90;99.90
8633;DHT22;4354;49.832;10.746;2023-03-16T04:36:51;-1.80;99.90
8633;DHT22;4354;49.832;10.746;2023-03-16T04:39:19;-1.80;99.90
8633;DHT22;4354;49.832;10.746;2023-03-16T04:41:46;-1.80;99.90
8633;DHT22;4354;49.832;10.746;2023-03-16T04:44:13;-1.80;99.90
8633;DHT22;4354;49.832;10.746;2023-03-16T04:46:40;-1.80;99.90
8633;DHT22;4354;49.832;10.746;2023-03-16T04:49:07;-1.70;99.90
8633;DHT22;4354;49.832;10.746;2023-03-16T04:51:38;-1.70;99.90
8633;DHT22;4354;49.832;10.746;2023-03-16T04:54:06;-1.60;99.90
8633;DHT22;4354;49.832;10.746;2023-03-16T04:56:33;-1.60;99.90
8633;DHT22;4354;49.832;10.746;2023-03-16T04:59:00;-1.50;99.90
8633;DHT22;4354;49.832;10.746;2023-03-16T05:01:26;-1.50;99.90
8633;DHT22;4354;49.832;10.746;2023-03-16T05:03:54;-1.50;99.90
8633;DHT22;4354;49.832;10.746;2023-03-16T05:06:25;-1.40;99.90
8633;DHT22;4354;49.832;10.746;2023-03-16T05:08:51;-1.50;99.90
8633;DHT22;4354;49.832;10.746;2023-03-16T05:11:19;-1.40;99.90
8633;DHT22;4354;49.832;10.746;2023-03-16T05:13:46;-1.40;99.90
8633;DHT22;4354;49.832;10.746;2023-03-16T05:16:13;-1.30;99.90
8633;DHT22;4354;49.832;10.746;2023-03-16T05:18:39;-1.30;99.90
8633;DHT22;4354;49.832;10.746;2023-03-16T05:21:07;-1.30;99.90
8633;DHT22;4354;49.832;10.746;2023-03-16T05:23:33;-1.30;99.90
8633;DHT22;4354;49.832;10.746;2023-03-16T05:26:00;-1.30;99.90
8633;DHT22;4354;49.832;10.746;2023-03-16T05:28:27;-1.30;99.90
8633;DHT22;4354;49.832;10.746;2023-03-16T05:30:55;-1.20;99.90
8633;DHT22;4354;49.832;10.746;2023-03-16T05:33:22;-1.20;99.90
8633;DHT22;4354;49.832;10.746;2023-03-16T05:35:49;-1.20;99.90
8633;DHT22;4354;49.832;10.746;2023-03-16T05:38:17;-1.20;99.90
8633;DHT22;4354;49.832;10.746;2023-03-16T05:40:43;-1.20;99.90
8633;DHT22;4354;49.832;10.746;2023-03-16T05:43:11;-1.20;99.90
8633;DHT22;4354;49.832;10.746;2023-03-16T05:45:38;-1.20;99.90
8633;DHT22;4354;49.832;10.746;2023-03-16T05:48:05;-1.20;99.90
8633;DHT22;4354;49.832;10.746;2023-03-16T05:50:32;-1.20;99.90
8633;DHT22;4354;49.832;10.746;2023-03-16T05:52:59;-1.10;99.90
8633;DHT22;4354;49.832;10.746;2023-03-16T05:55:25;-1.10;99.90
8633;DHT22;4354;49.832;10.746;2023-03-16T05:57:52;-1.10;99.90
8633;DHT22;4354;49.832;10.746;2023-03-16T06:00:20;-1.00;99.90
8633;DHT22;4354;49.832;10.746;2023-03-16T06:02:48;-1.00;99.90
8633;DHT22;4354;49.832;10.746;2023-03-16T06:05:16;-1.00;99.90
8633;DHT22;4354;49.832;10.746;2023-03-16T06:07:43;-1.10;99.90
8633;DHT22;4354;49.832;10.746;2023-03-16T06:10:11;-1.00;99.90
8633;DHT22;4354;49.832;10.746;2023-03-16T06:12:38;-0.90;99.90
8633;DHT22;4354;49.832;10.746;2023-03-16T06:15:06;-0.90;99.90
8633;DHT22;4354;49.832;10.746;2023-03-16T06:17:34;-0.90;99.90
8633;DHT22;4354;49.832;10.746;2023-03-16T06:20:01;-0.90;99.90
8633;DHT22;4354;49.832;10.746;2023-03-16T06:22:29;-0.80;99.90
8633;DHT22;4354;49.832;10.746;2023-03-16T06:24:56;-0.80;99.90
8633;DHT22;4354;49.832;10.746;2023-03-16T06:27:23;-0.70;99.90
8633;DHT22;4354;49.832;10.746;2023-03-16T06:29:52;-0.80;99.90
8633;DHT22;4354;49.832;10.746;2023-03-16T06:32:19;-0.70;99.90
8633;DHT22;4354;49.832;10.746;2023-03-16T06:34:46;-0.70;99.90
8633;DHT22;4354;49.832;10.746;2023-03-16T06:37:13;-0.60;99.90
8633;DHT22;4354;49.832;10.746;2023-03-16T06:39:40;-0.50;99.90
8633;DHT22;4354;49.832;10.746;2023-03-16T06:42:07;-0.50;99.90
8633;DHT22;4354;49.832;10.746;2023-03-16T06:44:34;-0.50;99.90
8633;DHT22;4354;49.832;10.746;2023-03-16T06:47:00;-0.40;99.90
8633;DHT22;4354;49.832;10.746;2023-03-16T06:49:27;-0.40;99.90
8633;DHT22;4354;49.832;10.746;2023-03-16T06:51:54;-0.40;99.90
8633;DHT22;4354;49.832;10.746;2023-03-16T06:54:22;-0.40;99.90
8633;DHT22;4354;49.832;10.746;2023-03-16T06:56:49;-0.30;99.90
8633;DHT22;4354;49.832;10.746;2023-03-16T06:59:16;-0.20;99.90
8633;DHT22;4354;49.832;10.746;2023-03-16T07:01:43;-0.20;99.90
8633;DHT22;4354;49.832;10.746;2023-03-16T07:04:10;-0.10;99.90
8633;DHT22;4354;49.832;10.746;2023-03-16T07:06:38;0.10;99.90
8633;DHT22;4354;49.832;10.746;2023-03-16T07:09:05;0.40;99.90
8633;DHT22;4354;49.832;10.746;2023-03-16T07:11:32;0.50;99.90
8633;DHT22;4354;49.832;10.746;2023-03-16T07:13:59;0.50;99.90
8633;DHT22;4354;49.832;10.746;2023-03-16T07:16:27;0.50;99.90
8633;DHT22;4354;49.832;10.746;2023-03-16T07:18:54;0.70;99.90
8633;DHT22;4354;49.832;10.746;2023-03-16T07:21:21;0.80;99.90
8633;DHT22;4354;49.832;10.746;2023-03-16T07:23:48;1.00;99.90
8633;DHT22;4354;49.832;10.746;2023-03-16T07:26:16;1.20;99.90
8633;DHT22;4354;49.832;10.746;2023-03-16T07:28:43;1.30;99.90
8633;DHT22;4354;49.832;10.746;2023-03-16T07:31:24;1.30;99.90
8633;DHT22;4354;49.832;10.746;2023-03-16T07:33:59;1.40;99.90
8633;DHT22;4354;49.832;10.746;2023-03-16T07:36:28;1.50;99.90
8633;DHT22;4354;49.832;10.746;2023-03-16T07:38:54;1.60;99.90
8633;DHT22;4354;49.832;10.746;2023-03-16T07:41:21;1.60;99.90
8633;DHT22;4354;49.832;10.746;2023-03-16T07:43:48;1.70;99.90
8633;DHT22;4354;49.832;10.746;2023-03-16T07:46:15;1.80;99.90
8633;DHT22;4354;49.832;10.746;2023-03-16T07:48:43;1.90;99.90
8633;DHT22;4354;49.832;10.746;2023-03-16T07:51:11;2.30;99.90
8633;DHT22;4354;49.832;10.746;2023-03-16T07:53:39;2.60;99.90
8633;DHT22;4354;49.832;10.746;2023-03-16T07:56:06;3.80;99.90
8633;DHT22;4354;49.832;10.746;2023-03-16T08:01:01;7.70;99.90
8633;DHT22;4354;49.832;10.746;2023-03-16T08:03:28;8.30;99.90
8633;DHT22;4354;49.832;10.746;2023-03-16T08:05:55;8.10;99.90
8633;DHT22;4354;49.832;10.746;2023-03-16T08:08:22;7.40;99.90
8633;DHT22;4354;49.832;10.746;2023-03-16T08:10:50;7.80;99.90
8633;DHT22;4354;49.832;10.746;2023-03-16T08:13:19;8.00;99.90
8633;DHT22;4354;49.832;10.746;2023-03-16T08:15:48;8.20;99.90
8633;DHT22;4354;49.832;10.746;2023-03-16T08:18:21;8.30;99.90
8633;DHT22;4354;49.832;10.746;2023-03-16T08:20:49;9.10;99.90
8633;DHT22;4354;49.832;10.746;2023-03-16T08:23:16;10.20;99.90
8633;DHT22;4354;49.832;10.746;2023-03-16T08:25:43;10.80;99.90
8633;DHT22;4354;49.832;10.746;2023-03-16T08:28:10;10.90;99.90
8633;DHT22;4354;49.832;10.746;2023-03-16T08:30:44;10.70;99.90
8633;DHT22;4354;49.832;10.746;2023-03-16T08:33:11;9.50;99.90
8633;DHT22;4354;49.832;10.746;2023-03-16T08:35:41;9.20;99.90
8633;DHT22;4354;49.832;10.746;2023-03-16T08:38:11;9.30;99.90
8633;DHT22;4354;49.832;10.746;2023-03-16T08:40:39;9.30;99.90
8633;DHT22;4354;49.832;10.746;2023-03-16T08:43:07;9.10;99.90
8633;DHT22;4354;49.832;10.746;2023-03-16T08:45:34;9.10;99.90
8633;DHT22;4354;49.832;10.746;2023-03-16T08:48:01;8.90;99.90
8633;DHT22;4354;49.832;10.746;2023-03-16T08:50:28;9.40;99.90
8633;DHT22;4354;49.832;10.746;2023-03-16T08:52:55;10.20;99.90
8633;DHT22;4354;49.832;10.746;2023-03-16T08:55:22;11.40;99.90
8633;DHT22;4354;49.832;10.746;2023-03-16T08:57:50;13.50;99.90
8633;DHT22;4354;49.832;10.746;2023-03-16T09:00:17;15.50;93.40
8633;DHT22;4354;49.832;10.746;2023-03-16T09:02:46;16.10;88.70
8633;DHT22;4354;49.832;10.746;2023-03-16T09:05:14;17.30;81.70
8633;DHT22;4354;49.832;10.746;2023-03-16T09:07:41;18.20;79.20
8633;DHT22;4354;49.832;10.746;2023-03-16T09:10:10;18.90;75.20
8633;DHT22;4354;49.832;10.746;2023-03-16T11:47:32;15.40;60.80
8633;DHT22;4354;49.832;10.746;2023-03-16T11:58:30;15.50;59.20
8633;DHT22;4354;49.832;10.746;2023-03-16T12:01:10;15.50;61.20
8633;DHT22;4354;49.832;10.746;2023-03-16T12:11:59;14.50;60.30
8633;DHT22;4354;49.832;10.746;2023-03-16T12:14:39;13.50;67.00
8633;DHT22;4354;49.832;10.746;2023-03-16T12:20:01;13.90;69.10
8633;DHT22;4354;49.832;10.746;2023-03-16T12:22:34;14.50;68.00
8633;DHT22;4354;49.832;10.746;2023-03-16T12:25:11;14.50;67.60
8633;DHT22;4354;49.832;10.746;2023-03-16T12:27:41;14.50;68.30
8633;DHT22;4354;49.832;10.746;2023-03-16T12:33:20;14.40;69.20
8633;DHT22;4354;49.832;10.746;2023-03-16T12:38:52;14.20;66.70
8633;DHT22;4354;49.832;10.746;2023-03-16T12:47:18;13.60;66.80
8633;DHT22;4354;49.832;10.746;2023-03-16T12:50:18;13.60;68.10
8633;DHT22;4354;49.832;10.746;2023-03-16T12:52:50;13.10;69.30
8633;DHT22;4354;49.832;10.746;2023-03-16T12:58:05;13.10;69.70
8633;DHT22;4354;49.832;10.746;2023-03-16T13:00:35;13.10;68.80
8633;DHT22;4354;49.832;10.746;2023-03-16T13:03:05;12.90;70.20
8633;DHT22;4354;49.832;10.746;2023-03-16T13:05:36;13.20;70.50
8633;DHT22;4354;49.832;10.746;2023-03-16T13:08:15;13.10;71.60
8633;DHT22;4354;49.832;10.746;2023-03-16T13:11:02;13.50;69.70
8633;DHT22;4354;49.832;10.746;2023-03-16T13:13:31;13.50;69.10
8633;DHT22;4354;49.832;10.746;2023-03-16T13:16:09;13.20;70.10
8633;DHT22;4354;49.832;10.746;2023-03-16T13:18:49;13.00;68.30
8633;DHT22;4354;49.832;10.746;2023-03-16T13:26:52;13.50;68.30
8633;DHT22;4354;49.832;10.746;2023-03-16T13:31:50;13.10;67.00
8633;DHT22;4354;49.832;10.746;2023-03-16T13:34:23;12.90;68.10
8633;DHT22;4354;49.832;10.746;2023-03-16T13:36:54;12.70;66.50
8633;DHT22;4354;49.832;10.746;2023-03-16T13:39:25;12.50;69.70
8633;DHT22;4354;49.832;10.746;2023-03-16T13:44:27;11.60;49.40
8633;DHT22;4354;49.832;10.746;2023-03-16T13:46:56;10.70;49.90
8633;DHT22;4354;49.832;10.746;2023-03-16T13:49:27;11.30;51.70
8633;DHT22;4354;49.832;10.746;2023-03-16T13:51:55;11.40;52.30
8633;DHT22;4354;49.832;10.746;2023-03-16T13:54:26;11.30;49.90
8633;DHT22;4354;49.832;10.746;2023-03-16T13:57:01;11.30;51.00
8633;DHT22;4354;49.832;10.746;2023-03-16T13:59:29;11.20;51.60
8633;DHT22;4354;49.832;10.746;2023-03-16T14:01:59;11.20;52.50
8633;DHT22;4354;49.832;10.746;2023-03-16T14:04:29;11.00;51.90
8633;DHT22;4354;49.832;10.746;2023-03-16T14:07:02;11.00;53.90
8633;DHT22;4354;49.832;10.746;2023-03-16T14:09:34;11.10;55.00
8633;DHT22;4354;49.832;10.746;2023-03-16T14:12:01;11.20;55.80
8633;DHT22;4354;49.832;10.746;2023-03-16T14:14:31;11.40;55.80
8633;DHT22;4354;49.832;10.746;2023-03-16T14:17:11;11.50;55.00
8633;DHT22;4354;49.832;10.746;2023-03-16T14:19:45;11.30;55.20
8633;DHT22;4354;49.832;10.746;2023-03-16T14:22:26;11.20;56.20
8633;DHT22;4354;49.832;10.746;2023-03-16T14:24:56;11.20;54.60
8633;DHT22;4354;49.832;10.746;2023-03-16T14:32:53;10.80;56.50
8633;DHT22;4354;49.832;10.746;2023-03-16T14:35:21;10.70;56.20
8633;DHT22;4354;49.832;10.746;2023-03-16T14:37:51;10.90;58.80
8633;DHT22;4354;49.832;10.746;2023-03-16T14:40:28;10.80;57.00
8633;DHT22;4354;49.832;10.746;2023-03-16T14:42:59;10.70;57.20
8633;DHT22;4354;49.832;10.746;2023-03-16T14:45:32;10.70;58.70
8633;DHT22;4354;49.832;10.746;2023-03-16T14:48:14;10.60;58.60
8633;DHT22;4354;49.832;10.746;2023-03-16T14:50:57;10.60;60.30
8633;DHT22;4354;49.832;10.746;2023-03-16T14:53:25;10.60;60.50
8633;DHT22;4354;49.832;10.746;2023-03-16T14:55:54;10.40;61.30
8633;DHT22;4354;49.832;10.746;2023-03-16T14:58:22;10.20;60.30
8633;DHT22;4354;49.832;10.746;2023-03-16T15:00:50;10.20;65.90
8633;DHT22;4354;49.832;10.746;2023-03-16T17:11:25;7.40;73.30
8633;DHT22;4354;49.832;10.746;2023-03-16T17:13:53;7.30;74.90
8633;DHT22;4354;49.832;10.746;2023-03-16T17:16:21;7.10;74.70
8633;DHT22;4354;49.832;10.746;2023-03-16T17:18:54;7.00;71.50
8633;DHT22;4354;49.832;10.746;2023-03-16T17:21:23;6.90;68.20
8633;DHT22;4354;49.832;10.746;2023-03-16T17:23:51;6.80;64.70
8633;DHT22;4354;49.832;10.746;2023-03-16T17:26:32;6.80;64.50
8633;DHT22;4354;49.832;10.746;2023-03-16T17:29:05;6.70;64.90
8633;DHT22;4354;49.832;10.746;2023-03-16T17:31:37;6.60;65.30
8633;DHT22;4354;49.832;10.746;2023-03-16T17:34:25;6.50;65.50
8633;DHT22;4354;49.832;10.746;2023-03-16T17:36:53;6.50;65.80
8633;DHT22;4354;49.832;10.746;2023-03-16T17:39:31;6.40;66.20
8633;DHT22;4354;49.832;10.746;2023-03-16T17:42:04;6.40;66.60
8633;DHT22;4354;49.832;10.746;2023-03-16T17:44:34;6.40;67.30
8633;DHT22;4354;49.832;10.746;2023-03-16T17:47:14;6.30;67.60
8633;DHT22;4354;49.832;10.746;2023-03-16T17:49:46;6.30;67.70
8633;DHT22;4354;49.832;10.746;2023-03-16T17:52:19;6.20;68.10
8633;DHT22;4354;49.832;10.746;2023-03-16T17:54:47;6.20;68.60
8633;DHT22;4354;49.832;10.746;2023-03-16T17:57:30;6.10;69.40
8633;DHT22;4354;49.832;10.746;2023-03-16T17:59:59;6.10;69.80
8633;DHT22;4354;49.832;10.746;2023-03-16T18:02:50;6.00;70.40
8633;DHT22;4354;49.832;10.746;2023-03-16T18:05:26;5.90;70.80
8633;DHT22;4354;49.832;10.746;2023-03-16T18:07:57;5.90;71.70
8633;DHT22;4354;49.832;10.746;2023-03-16T18:10:28;5.90;72.30
8633;DHT22;4354;49.832;10.746;2023-03-16T18:13:00;5.80;73.00
8633;DHT22;4354;49.832;10.746;2023-03-16T18:15:31;5.70;73.00
8633;DHT22;4354;49.832;10.746;2023-03-16T18:17:59;5.80;73.90
8633;DHT22;4354;49.832;10.746;2023-03-16T18:20:30;5.70;74.10
8633;DHT22;4354;49.832;10.746;2023-03-16T18:23:00;5.60;74.90
8633;DHT22;4354;49.832;10.746;2023-03-16T18:25:34;5.60;75.50
8633;DHT22;4354;49.832;10.746;2023-03-16T18:28:02;5.50;76.30
8633;DHT22;4354;49.832;10.746;2023-03-16T18:30:29;5.40;77.10
8633;DHT22;4354;49.832;10.746;2023-03-16T18:32:58;5.30;78.60
8633;DHT22;4354;49.832;10.746;2023-03-16T18:35:25;5.30;79.60
8633;DHT22;4354;49.832;10.746;2023-03-16T18:37:53;5.30;80.30
8633;DHT22;4354;49.832;10.746;2023-03-16T18:40:22;5.30;80.80
8633;DHT22;4354;49.832;10.746;2023-03-16T18:42:50;5.30;81.90
8633;DHT22;4354;49.832;10.746;2023-03-16T18:45:17;5.20;82.70
8633;DHT22;4354;49.832;10.746;2023-03-16T18:47:52;5.20;83.40
8633;DHT22;4354;49.832;10.746;2023-03-16T18:50:24;5.20;84.50
8633;DHT22;4354;49.832;10.746;2023-03-16T18:52:53;5.10;85.10
8633;DHT22;4354;49.832;10.746;2023-03-16T18:55:23;5.10;86.10
8633;DHT22;4354;49.832;10.746;2023-03-16T18:57:51;5.00;86.50
8633;DHT22;4354;49.832;10.746;2023-03-16T19:00:24;5.00;88.50
8633;DHT22;4354;49.832;10.746;2023-03-16T19:02:58;5.00;89.40
8633;DHT22;4354;49.832;10.746;2023-03-16T19:05:32;4.90;90.20
8633;DHT22;4354;49.832;10.746;2023-03-16T19:08:02;4.90;90.50
8633;DHT22;4354;49.832;10.746;2023-03-16T19:10:33;4.80;90.90
8633;DHT22;4354;49.832;10.746;2023-03-16T19:13:02;4.80;91.30
8633;DHT22;4354;49.832;10.746;2023-03-16T19:15:31;4.70;92.00
8633;DHT22;4354;49.832;10.746;2023-03-16T19:17:59;4.60;92.70
8633;DHT22;4354;49.832;10.746;2023-03-16T19:20:28;4.60;93.20
8633;DHT22;4354;49.832;10.746;2023-03-16T19:23:20;4.50;93.80
8633;DHT22;4354;49.832;10.746;2023-03-16T19:25:49;4.40;95.00
8633;DHT22;4354;49.832;10.746;2023-03-16T19:28:37;4.30;97.00
8633;DHT22;4354;49.832;10.746;2023-03-16T19:31:22;4.20;99.00
8633;DHT22;4354;49.832;10.746;2023-03-16T19:33:51;4.20;99.40
8633;DHT22;4354;49.832;10.746;2023-03-16T19:36:23;4.20;99.90
8633;DHT22;4354;49.832;10.746;2023-03-16T19:38:51;4.20;99.90
8633;DHT22;4354;49.832;10.746;2023-03-16T19:41:30;4.20;99.90
8633;DHT22;4354;49.832;10.746;2023-03-16T19:44:20;4.10;99.90
8633;DHT22;4354;49.832;10.746;2023-03-16T19:46:48;4.00;99.90
8633;DHT22;4354;49.832;10.746;2023-03-16T19:49:20;4.00;99.90
8633;DHT22;4354;49.832;10.746;2023-03-16T19:51:49;3.90;99.90
8633;DHT22;4354;49.832;10.746;2023-03-16T19:54:22;3.80;99.90
8633;DHT22;4354;49.832;10.746;2023-03-16T19:56:50;3.80;99.90
8633;DHT22;4354;49.832;10.746;2023-03-16T19:59:19;3.70;99.90
8633;DHT22;4354;49.832;10.746;2023-03-16T20:01:46;3.60;99.90
8633;DHT22;4354;49.832;10.746;2023-03-16T20:04:21;3.50;99.90
8633;DHT22;4354;49.832;10.746;2023-03-16T20:06:49;3.50;99.90
8633;DHT22;4354;49.832;10.746;2023-03-16T20:09:17;3.40;99.90
8633;DHT22;4354;49.832;10.746;2023-03-16T20:11:44;3.30;99.90
8633;DHT22;4354;49.832;10.746;2023-03-16T20:14:21;3.30;99.90
8633;DHT22;4354;49.832;10.746;2023-03-16T20:16:49;3.10;99.90
8633;DHT22;4354;49.832;10.746;2023-03-16T20:19:16;3.00;99.90
8633;DHT22;4354;49.832;10.746;2023-03-16T20:21:43;2.90;99.90
8633;DHT22;4354;49.832;10.746;2023-03-16T20:24:18;3.20;99.90
8633;DHT22;4354;49.832;10.746;2023-03-16T20:26:47;2.70;99.90
8633;DHT22;4354;49.832;10.746;2023-03-16T20:29:23;2.60;99.90
8633;DHT22;4354;49.832;10.746;2023-03-16T20:31:52;2.50;99.90
8633;DHT22;4354;49.832;10.746;2023-03-16T20:34:25;2.40;99.90
8633;DHT22;4354;49.832;10.746;2023-03-16T20:36:53;2.40;99.90
8633;DHT22;4354;49.832;10.746;2023-03-16T20:39:19;2.30;99.90
8633;DHT22;4354;49.832;10.746;2023-03-16T20:41:46;2.20;99.90
8633;DHT22;4354;49.832;10.746;2023-03-16T20:44:17;2.20;99.90
8633;DHT22;4354;49.832;10.746;2023-03-16T20:46:44;2.10;99.90
8633;DHT22;4354;49.832;10.746;2023-03-16T20:49:31;2.00;99.90
8633;DHT22;4354;49.832;10.746;2023-03-16T20:54:25;1.80;99.90
8633;DHT22;4354;49.832;10.746;2023-03-16T20:56:52;1.70;99.90
8633;DHT22;4354;49.832;10.746;2023-03-16T20:59:22;1.70;99.90
8633;DHT22;4354;49.832;10.746;2023-03-16T21:01:50;1.60;99.90
8633;DHT22;4354;49.832;10.746;2023-03-16T21:04:25;1.60;99.90
8633;DHT22;4354;49.832;10.746;2023-03-16T21:06:53;1.60;99.90
8633;DHT22;4354;49.832;10.746;2023-03-16T21:09:21;1.50;99.90
8633;DHT22;4354;49.832;10.746;2023-03-16T21:11:48;1.50;99.90
8633;DHT22;4354;49.832;10.746;2023-03-16T21:14:22;1.50;99.90
8633;DHT22;4354;49.832;10.746;2023-03-16T21:16:50;1.40;99.90
8633;DHT22;4354;49.832;10.746;2023-03-16T21:19:20;1.30;99.90
8633;DHT22;4354;49.832;10.746;2023-03-16T21:21:48;1.30;99.90
8633;DHT22;4354;49.832;10.746;2023-03-16T21:24:15;1.30;99.90
8633;DHT22;4354;49.832;10.746;2023-03-16T21:26:43;1.30;99.90
8633;DHT22;4354;49.832;10.746;2023-03-16T21:29:14;1.20;99.90
8633;DHT22;4354;49.832;10.746;2023-03-16T21:31:41;1.20;99.90
8633;DHT22;4354;49.832;10.746;2023-03-16T21:34:24;1.20;99.90
8633;DHT22;4354;49.832;10.746;2023-03-16T21:36:52;1.10;99.90
8633;DHT22;4354;49.832;10.746;2023-03-16T21:39:20;1.10;99.90
8633;DHT22;4354;49.832;10.746;2023-03-16T21:41:49;1.10;99.90
8633;DHT22;4354;49.832;10.746;2023-03-16T21:44:16;1.00;99.90
8633;DHT22;4354;49.832;10.746;2023-03-16T21:46:44;0.90;99.90
8633;DHT22;4354;49.832;10.746;2023-03-16T21:49:12;0.90;99.90